Time;durP1;ratioP1;P1;durP2;ratioP2;P2;SDS_P1;SDS_P2;PMS_P1;PMS_P2;Temp;Humidity;BMP_temperature;BMP_pressure;BME280_temperature;BME280_humidity;BME280_pressure;Samples;Min_cycle;Max_cycle;Signal;HPM_P1;HPM_P2
2022/12/11 00:02:06;;;;;;;15.70;10.07;;;;;;;12.37;100.00;92839.53;5092817;28;20443;-77
2022/12/11 00:04:33;;;;;;;17.93;10.90;;;;;;;12.33;100.00;92841.72;5092777;28;20918;-78
2022/12/11 00:06:59;;;;;;;13.07;10.20;;;;;;;12.37;100.00;92840.34;5092553;28;20436;-77
2022/12/11 00:09:26;;;;;;;18.97;10.40;;;;;;;12.41;100.00;92831.06;5092593;28;20471;-78
2022/12/11 00:11:53;;;;;;;20.53;10.97;;;;;;;12.41;100.00;92825.78;5092452;28;20482;-78
2022/12/11 00:14:20;;;;;;;20.07;13.67;;;;;;;12.33;100.00;92811.97;5092514;28;20451;-77
2022/12/11 00:16:48;;;;;;;19.83;14.10;;;;;;;12.31;100.00;92809.53;5056707;28;20964;-77
2022/12/11 00:19:16;;;;;;;17.50;13.90;;;;;;;12.33;100.00;92814.63;5092794;28;20487;-77
2022/12/11 00:21:42;;;;;;;16.83;12.83;;;;;;;12.36;100.00;92796.63;5092734;28;20863;-77
2022/12/11 00:24:09;;;;;;;36.10;28.33;;;;;;;12.40;100.00;92803.13;5092550;28;20451;-77
2022/12/11 00:26:36;;;;;;;23.10;15.40;;;;;;;12.40;100.00;92800.50;5056925;28;20481;-77
2022/12/11 00:29:03;;;;;;;21.47;14.80;;;;;;;12.32;100.00;92813.00;5092386;28;20444;-77
2022/12/11 00:31:30;;;;;;;25.20;17.60;;;;;;;12.30;100.00;92805.28;5094830;28;20536;-77
2022/12/11 00:33:57;;;;;;;14.97;11.67;;;;;;;12.22;100.00;92808.06;5096674;28;20471;-77
2022/12/11 00:36:26;;;;;;;17.53;12.07;;;;;;;12.12;100.00;92802.31;5060661;28;20431;-77
2022/12/11 00:38:53;;;;;;;15.90;10.90;;;;;;;12.12;100.00;92815.47;5096182;28;20439;-77
2022/12/11 00:41:21;;;;;;;17.80;13.43;;;;;;;12.13;100.00;92805.75;5096303;28;20444;-77
2022/12/11 00:43:48;;;;;;;18.57;11.80;;;;;;;12.19;100.00;92792.69;5096097;28;20455;-77
2022/12/11 00:46:15;;;;;;;15.90;13.23;;;;;;;12.22;100.00;92794.94;5096167;28;20832;-77
2022/12/11 00:48:41;;;;;;;15.00;12.20;;;;;;;12.28;100.00;92788.09;5096480;28;20847;-78
2022/12/11 00:51:09;;;;;;;17.80;12.33;;;;;;;12.30;100.00;92784.25;5096271;28;20491;-77
2022/12/11 00:53:37;;;;;;;19.77;12.93;;;;;;;12.23;100.00;92786.03;5096397;28;20913;-77
2022/12/11 00:56:10;;;;;;;28.63;18.40;;;;;;;12.16;100.00;92793.06;5096036;28;20443;-77
2022/12/11 00:58:36;;;;;;;26.00;16.63;;;;;;;12.05;100.00;92799.63;5096263;28;20447;-77
2022/12/11 01:01:06;;;;;;;29.37;16.97;;;;;;;12.05;100.00;92810.16;5095994;28;20451;-77
2022/12/11 01:03:33;;;;;;;25.97;16.53;;;;;;;12.11;100.00;92813.84;5096139;28;20482;-77
2022/12/11 01:06:00;;;;;;;21.17;15.60;;;;;;;12.14;100.00;92807.38;5095986;28;20444;-77
2022/12/11 01:08:27;;;;;;;24.90;16.17;;;;;;;12.20;100.00;92796.13;5060491;28;20441;-78
2022/12/11 01:11:03;;;;;;;19.00;14.73;;;;;;;12.21;100.00;92824.84;5095595;28;20482;-77
2022/12/11 01:13:30;;;;;;;21.30;14.97;;;;;;;12.21;100.00;92808.25;5096113;28;20881;-77
2022/12/11 01:15:57;;;;;;;28.80;18.13;;;;;;;12.26;100.00;92838.25;5096020;28;20473;-77
2022/12/11 01:18:26;;;;;;;21.77;15.00;;;;;;;12.16;100.00;92800.97;5060116;28;20452;-77
2022/12/11 01:20:52;;;;;;;27.07;16.50;;;;;;;11.93;100.00;92795.09;5095986;28;20497;-78
2022/12/11 01:23:19;;;;;;;23.60;17.00;;;;;;;12.01;100.00;92813.34;5095645;28;20444;-77
2022/12/11 01:25:46;;;;;;;27.83;17.20;;;;;;;12.12;100.00;92828.59;5095455;28;20930;-78
2022/12/11 01:28:15;;;;;;;24.13;16.87;;;;;;;12.17;100.00;92838.56;5095530;28;20850;-78
2022/12/11 01:30:43;;;;;;;23.27;16.23;;;;;;;12.20;100.00;92861.84;5095655;28;20443;-77
2022/12/11 01:33:09;;;;;;;27.20;18.57;;;;;;;12.26;100.00;92855.84;5095460;28;20881;-78
2022/12/11 01:35:36;;;;;;;19.33;14.97;;;;;;;12.16;100.00;92829.06;5095501;28;20448;-77
2022/12/11 01:38:03;;;;;;;22.07;16.13;;;;;;;12.17;100.00;92835.94;5059834;28;20845;-77
2022/12/11 01:40:30;;;;;;;25.73;18.00;;;;;;;12.03;100.00;92840.25;5095096;28;20838;-77
2022/12/11 01:42:57;;;;;;;24.07;17.30;;;;;;;11.88;100.00;92819.31;5094943;28;20440;-77
2022/12/11 01:45:37;;;;;;;25.83;18.20;;;;;;;11.86;100.00;92794.25;5095007;28;20977;-77
2022/12/11 01:48:09;;;;;;;35.53;18.80;;;;;;;11.79;100.00;92802.84;5095128;28;20452;-77
2022/12/11 01:50:42;;;;;;;27.10;18.40;;;;;;;11.79;100.00;92821.25;5095052;28;20447;-77
2022/12/11 01:53:12;;;;;;;27.47;17.50;;;;;;;11.74;100.00;92802.59;5095339;28;20504;-77
2022/12/11 01:55:40;;;;;;;29.73;17.77;;;;;;;11.79;100.00;92805.47;5095130;28;20445;-77
2022/12/11 01:58:08;;;;;;;27.80;18.23;;;;;;;11.78;100.00;92795.97;5094916;28;20440;-77
2022/12/11 02:00:37;;;;;;;21.00;12.77;;;;;;;11.70;100.00;92809.22;5094916;28;20451;-77
2022/12/11 02:03:04;;;;;;;20.63;13.63;;;;;;;11.74;100.00;92839.38;5094819;28;20440;-78
2022/12/11 02:05:30;;;;;;;7.20;6.50;;;;;;;12.07;100.00;92776.59;5094796;28;20439;-77
2022/12/11 02:08:00;;;;;;;12.43;4.93;;;;;;;12.24;100.00;92787.66;5094885;28;20455;-77
2022/12/11 02:10:39;;;;;;;5.27;4.23;;;;;;;12.38;100.00;92773.56;5094535;28;20448;-77
2022/12/11 02:13:13;;;;;;;2.60;2.40;;;;;;;12.48;100.00;92783.78;5094784;28;20486;-78
2022/12/11 02:15:51;;;;;;;11.90;8.00;;;;;;;12.58;100.00;92786.84;5094827;28;20805;-78
2022/12/11 02:18:25;;;;;;;12.93;8.77;;;;;;;12.66;100.00;92806.94;5094785;28;20458;-78
2022/12/11 02:20:58;;;;;;;8.20;5.10;;;;;;;12.61;100.00;92769.88;5094534;28;20476;-77
2022/12/11 02:23:54;;;;;;;20.97;10.40;;;;;;;12.61;100.00;92780.41;5094446;28;20517;-77
2022/12/11 02:26:34;;;;;;;13.00;9.27;;;;;;;12.53;100.00;92785.81;5094445;28;20450;-77
2022/12/11 02:29:07;;;;;;;10.97;7.67;;;;;;;12.55;100.00;92773.28;5094473;28;20446;-78
2022/12/11 02:31:38;;;;;;;12.80;7.30;;;;;;;12.56;100.00;92762.56;5094231;28;21179;-77
2022/12/11 02:34:10;;;;;;;10.63;7.10;;;;;;;12.58;100.00;92759.75;5094127;28;20444;-78
2022/12/11 02:36:41;;;;;;;11.13;8.73;;;;;;;12.59;100.00;92742.94;5094361;28;20503;-77
2022/12/11 02:39:12;;;;;;;10.63;6.63;;;;;;;12.39;100.00;92732.31;5094366;28;20497;-77
2022/12/11 02:41:40;;;;;;;7.00;5.50;;;;;;;12.49;100.00;92721.44;5094257;28;20518;-78
2022/12/11 02:44:11;;;;;;;11.30;6.50;;;;;;;12.56;100.00;92711.78;5094190;28;20497;-77
2022/12/11 02:46:40;;;;;;;5.20;4.70;;;;;;;12.65;100.00;92707.94;5093652;28;20579;-77
2022/12/11 02:49:08;;;;;;;3.67;3.30;;;;;;;12.71;100.00;92699.25;5094133;28;20447;-78
2022/12/11 02:51:39;;;;;;;3.63;3.23;;;;;;;12.85;100.00;92711.47;5093857;28;20479;-77
2022/12/11 02:54:10;;;;;;;3.03;2.83;;;;;;;13.01;100.00;92728.75;5093007;28;20444;-78
2022/12/11 02:56:43;;;;;;;2.43;2.23;;;;;;;13.15;100.00;92734.88;5093680;28;20957;-77
2022/12/11 02:59:16;;;;;;;2.67;2.37;;;;;;;13.28;100.00;92727.81;5093658;28;20942;-77
2022/12/11 03:01:43;;;;;;;4.23;2.90;;;;;;;13.35;100.00;92741.03;5074674;28;20440;-77
2022/12/11 03:04:10;;;;;;;2.70;2.50;;;;;;;13.45;100.00;92749.34;5093705;28;20440;-77
2022/12/11 03:06:41;;;;;;;3.40;3.20;;;;;;;13.50;100.00;92762.72;5093900;28;20448;-77
2022/12/11 03:09:08;;;;;;;3.50;2.80;;;;;;;13.59;100.00;92771.28;5093513;28;20448;-78
2022/12/11 03:11:34;;;;;;;3.60;3.20;;;;;;;13.62;100.00;92766.44;5093400;28;20484;-78
2022/12/11 03:14:02;;;;;;;4.37;3.50;;;;;;;13.61;100.00;92753.44;5093938;28;20501;-78
2022/12/11 03:16:34;;;;;;;2.60;2.20;;;;;;;13.47;100.00;92735.97;5093532;28;20535;-77
2022/12/11 03:19:10;;;;;;;2.40;1.83;;;;;;;13.53;100.00;92725.44;5093159;28;21001;-77
2022/12/11 03:21:43;;;;;;;2.13;2.03;;;;;;;13.75;100.00;92747.16;5093325;28;20443;-78
2022/12/11 03:24:15;;;;;;;2.43;2.27;;;;;;;13.81;100.00;92754.25;5093338;28;20445;-78
2022/12/11 03:26:46;;;;;;;2.03;1.90;;;;;;;13.89;100.00;92748.00;5057755;28;20458;-77
2022/12/11 03:29:19;;;;;;;5.57;1.97;;;;;;;13.89;100.00;92737.44;5093293;28;20945;-78
2022/12/11 03:31:55;;;;;;;2.50;2.30;;;;;;;13.87;100.00;92747.38;5093015;28;21009;-77
2022/12/11 03:34:27;;;;;;;2.63;2.33;;;;;;;13.81;100.00;92758.72;5092977;28;20439;-78
2022/12/11 03:36:56;;;;;;;3.27;2.97;;;;;;;13.82;100.00;92753.25;5092899;28;20493;-78
2022/12/11 03:39:28;;;;;;;3.57;3.20;;;;;;;13.66;100.00;92755.47;5093211;28;20444;-78
2022/12/11 03:41:55;;;;;;;6.43;4.00;;;;;;;13.53;100.00;92775.50;5092870;28;20440;-78
2022/12/11 03:44:24;;;;;;;5.33;2.83;;;;;;;13.67;100.00;92770.28;5093123;28;20505;-77
2022/12/11 03:46:54;;;;;;;3.80;2.03;;;;;;;13.69;100.00;92774.34;5092884;28;20440;-77
2022/12/11 03:49:26;;;;;;;1.93;1.70;;;;;;;13.82;99.64;92776.16;5093020;28;20444;-77
2022/12/11 03:51:56;;;;;;;4.33;1.83;;;;;;;14.12;95.49;92779.22;5057310;28;20524;-78
2022/12/11 03:54:24;;;;;;;1.77;1.67;;;;;;;14.24;95.63;92785.53;5092872;28;20444;-78
2022/12/11 03:56:56;;;;;;;1.80;1.70;;;;;;;14.30;96.38;92784.69;5092577;28;21001;-78
2022/12/11 03:59:22;;;;;;;2.97;1.90;;;;;;;14.41;92.73;92789.34;5092762;28;20934;-78
2022/12/11 04:01:49;;;;;;;2.57;2.37;;;;;;;14.51;92.43;92789.78;5057691;28;20976;-77
2022/12/11 04:04:18;;;;;;;2.70;1.90;;;;;;;14.60;91.24;92797.47;5091321;28;20467;-78
2022/12/11 04:06:44;;;;;;;4.57;1.90;;;;;;;14.66;92.34;92786.91;5092535;28;20494;-78
2022/12/11 04:09:11;;;;;;;2.00;1.63;;;;;;;14.69;91.43;92783.84;5073875;28;20497;-78
2022/12/11 04:11:38;;;;;;;3.73;1.77;;;;;;;14.77;88.35;92788.94;5092601;28;20504;-78
2022/12/11 04:16:52;;;;;;;3.37;1.93;;;;;;;15.08;89.25;92819.13;5092621;28;20572;-78
2022/12/11 04:24:50;;;;;;;4.30;3.90;;;;;;;15.12;88.17;92817.69;5093136;28;20435;-78
2022/12/11 04:27:47;;;;;;;7.60;5.40;;;;;;;15.14;87.71;92823.56;5093125;28;20456;-78
2022/12/11 04:30:08;;;;;;;3.20;2.90;;;;;;;15.18;87.62;92836.13;5093174;28;20440;-78
2022/12/11 04:32:35;;;;;;;3.87;1.93;;;;;;;15.19;88.33;92827.19;5092811;28;21022;-78
2022/12/11 04:35:03;;;;;;;2.70;2.50;;;;;;;15.11;88.60;92832.72;5093439;28;20444;-81
2022/12/11 04:37:30;;;;;;;3.13;2.20;;;;;;;15.02;88.59;92846.34;5093517;28;20944;-81
2022/12/11 04:39:57;;;;;;;4.60;3.60;;;;;;;14.88;90.27;92866.69;5057853;28;20439;-81
2022/12/11 04:42:23;;;;;;;3.57;3.17;;;;;;;14.98;90.38;92882.09;5094244;28;20489;-81
2022/12/11 04:44:50;;;;;;;4.37;2.97;;;;;;;14.99;91.22;92899.56;5093395;28;20443;-80
2022/12/11 04:47:17;;;;;;;4.87;2.60;;;;;;;14.98;91.34;92884.75;5093248;28;20463;-80
2022/12/11 04:49:44;;;;;;;1.90;1.80;;;;;;;14.66;85.88;92867.94;5058076;28;20503;-80
2022/12/11 04:52:12;;;;;;;5.03;3.50;;;;;;;14.83;87.20;92863.84;5093500;28;20969;-80
2022/12/11 04:54:39;;;;;;;3.00;2.50;;;;;;;14.90;88.54;92877.84;5093607;28;20431;-80
2022/12/11 04:57:06;;;;;;;3.00;2.70;;;;;;;14.95;89.75;92887.81;5093438;28;20443;-80
2022/12/11 04:59:33;;;;;;;3.50;2.20;;;;;;;14.94;89.38;92886.19;5093237;28;20443;-80
2022/12/11 05:01:59;;;;;;;2.43;1.80;;;;;;;14.78;90.93;92904.09;5093637;28;20448;-80
2022/12/11 05:04:30;;;;;;;1.80;1.40;;;;;;;14.71;83.42;92903.25;5093527;28;20456;-80
2022/12/11 05:06:57;;;;;;;3.13;1.20;;;;;;;14.82;78.26;92902.66;5093283;28;20538;-80
2022/12/11 05:09:26;;;;;;;2.30;1.60;;;;;;;15.06;80.48;92897.75;5093078;28;20477;-80
2022/12/11 05:11:52;;;;;;;5.20;2.07;;;;;;;15.10;81.92;92889.22;5093014;28;20964;-80
2022/12/11 05:14:19;;;;;;;1.70;1.60;;;;;;;15.11;80.21;92901.41;5093045;28;20500;-80
2022/12/11 05:16:46;;;;;;;3.37;1.70;;;;;;;15.10;78.74;92913.00;5059268;28;20443;-80
2022/12/11 05:19:13;;;;;;;1.50;1.17;;;;;;;15.12;74.08;92921.50;5096855;28;20485;-80
2022/12/11 05:21:39;;;;;;;1.30;1.20;;;;;;;15.22;76.42;92913.16;5096384;28;20444;-80
2022/12/11 05:24:07;;;;;;;2.37;1.40;;;;;;;15.29;76.42;92921.88;5096721;28;20450;-80
2022/12/11 05:26:35;;;;;;;1.60;1.50;;;;;;;15.36;76.69;92929.81;5097305;28;20444;-80
2022/12/11 05:29:02;;;;;;;18.97;8.10;;;;;;;15.66;94.18;92891.31;5061070;28;20838;-79
2022/12/11 05:31:29;;;;;;;24.97;13.93;;;;;;;16.47;98.39;92905.69;5096502;28;20507;-79
2022/12/11 05:33:55;;;;;;;4.07;2.40;;;;;;;16.81;75.55;92933.63;5096389;28;20548;-79
2022/12/11 05:36:24;;;;;;;3.47;3.23;;;;;;;17.23;75.19;92918.78;5077238;28;20446;-78
2022/12/11 05:38:52;;;;;;;2.30;1.50;;;;;;;16.80;70.42;92934.66;5096486;28;20440;-79
2022/12/11 05:41:21;;;;;;;1.80;1.20;;;;;;;16.62;69.75;92916.81;5096371;28;20443;-79
2022/12/11 05:43:49;;;;;;;1.53;1.30;;;;;;;16.54;70.18;92894.06;5096305;28;20458;-78
2022/12/11 05:46:18;;;;;;;2.30;1.53;;;;;;;16.40;70.71;92908.41;5096278;28;20451;-79
2022/12/11 05:48:47;;;;;;;5.80;1.37;;;;;;;16.36;70.53;92886.03;5096380;28;20459;-80
2022/12/11 05:51:15;;;;;;;3.80;1.67;;;;;;;16.20;72.21;92868.03;5096836;28;20443;-80
2022/12/11 05:53:43;;;;;;;1.93;1.30;;;;;;;16.16;72.58;92877.41;5096383;28;20486;-79
2022/12/11 05:56:13;;;;;;;2.23;1.30;;;;;;;16.09;73.55;92880.09;5096404;28;20909;-79
2022/12/11 05:58:41;;;;;;;1.50;1.30;;;;;;;16.03;73.19;92881.75;5095862;28;20444;-80
2022/12/11 06:01:11;;;;;;;3.17;1.90;;;;;;;15.93;72.81;92876.13;5095866;28;20481;-79
2022/12/11 06:03:38;;;;;;;3.63;1.30;;;;;;;15.82;73.42;92860.91;5096130;28;20468;-79
2022/12/11 06:06:06;;;;;;;5.30;1.30;;;;;;;15.79;73.67;92880.66;5096208;28;20443;-82
2022/12/11 06:08:33;;;;;;;3.10;2.33;;;;;;;16.25;89.40;92863.72;5076960;28;20457;-82
2022/12/11 06:11:00;;;;;;;2.00;1.47;;;;;;;16.41;76.06;92891.50;5095918;28;20448;-82
2022/12/11 06:13:27;;;;;;;2.23;1.50;;;;;;;16.31;72.74;92894.63;5095299;28;20478;-81
2022/12/11 06:15:54;;;;;;;1.53;1.40;;;;;;;16.24;71.72;92917.69;5060592;28;20950;-80
2022/12/11 06:18:22;;;;;;;3.53;1.47;;;;;;;16.19;68.83;92896.34;5094076;28;20479;-78
2022/12/11 06:20:49;;;;;;;5.23;1.77;;;;;;;16.27;67.19;92909.31;5076631;28;20441;-78
2022/12/11 06:23:16;;;;;;;1.70;1.40;;;;;;;16.29;69.91;92911.75;5087634;28;20455;-78
2022/12/11 06:25:42;;;;;;;1.70;1.50;;;;;;;16.30;68.48;92939.84;5110470;28;20443;-80
2022/12/11 06:28:10;;;;;;;3.37;1.60;;;;;;;16.31;69.72;92917.63;5101359;28;20457;-78
2022/12/11 06:30:37;;;;;;;2.80;1.50;;;;;;;16.36;69.91;92934.50;5059060;28;20444;-78
2022/12/11 06:33:04;;;;;;;2.40;1.93;;;;;;;16.24;70.36;92948.63;5107216;28;20487;-78
2022/12/11 06:35:32;;;;;;;3.10;2.20;;;;;;;16.37;71.85;92956.47;5110125;28;20908;-79
2022/12/11 06:37:59;;;;;;;3.93;1.60;;;;;;;16.29;72.53;92946.16;5105797;28;20508;-79
2022/12/11 06:40:26;;;;;;;2.23;1.47;;;;;;;16.42;73.11;92948.69;5111864;28;20459;-78
2022/12/11 06:42:54;;;;;;;2.70;1.53;;;;;;;16.41;72.27;92941.78;5103992;28;20918;-78
2022/12/11 06:45:21;;;;;;;1.50;1.40;;;;;;;16.36;72.93;92938.97;5114761;28;20929;-78
2022/12/11 06:47:47;;;;;;;1.30;1.20;;;;;;;16.38;71.93;92934.28;5115273;28;20447;-78
2022/12/11 06:50:14;;;;;;;1.63;1.50;;;;;;;16.39;72.99;92938.53;5115183;28;20504;-78
2022/12/11 06:52:42;;;;;;;1.60;1.47;;;;;;;16.37;72.67;92938.75;5109452;28;20482;-78
2022/12/11 06:55:09;;;;;;;1.83;1.37;;;;;;;16.31;72.16;92944.09;5059244;28;20798;-78
2022/12/11 06:57:36;;;;;;;2.60;1.60;;;;;;;16.40;72.09;92929.56;5093733;28;20455;-78
2022/12/11 07:00:04;;;;;;;2.17;1.40;;;;;;;16.49;72.95;92952.16;5085090;28;20493;-78
2022/12/11 07:02:31;;;;;;;2.23;1.73;;;;;;;16.47;72.29;92950.72;5098051;28;20987;-78
2022/12/11 07:04:57;;;;;;;4.23;2.00;;;;;;;16.43;73.15;92947.69;5107540;28;20959;-78
2022/12/11 07:07:24;;;;;;;1.70;1.60;;;;;;;16.45;73.16;92958.06;5094949;28;20842;-78
2022/12/11 07:09:52;;;;;;;2.80;1.70;;;;;;;16.43;73.58;92953.78;5090379;28;20868;-78
2022/12/11 07:12:19;;;;;;;1.60;1.50;;;;;;;16.43;72.89;92943.19;5093331;28;20451;-78
2022/12/11 07:14:46;;;;;;;2.90;1.43;;;;;;;16.50;72.46;92935.22;5105435;28;20454;-78
2022/12/11 07:17:13;;;;;;;2.23;1.63;;;;;;;16.57;74.59;92941.28;5095559;28;20444;-79
2022/12/11 07:19:40;;;;;;;2.43;1.90;;;;;;;16.52;73.92;92937.66;5093615;28;20536;-78
2022/12/11 07:22:06;;;;;;;1.90;1.60;;;;;;;16.53;72.99;92945.41;5093185;28;20523;-78
2022/12/11 07:24:33;;;;;;;3.13;2.80;;;;;;;16.56;73.38;92950.25;5093613;28;20827;-78
2022/12/11 07:27:01;;;;;;;4.13;1.50;;;;;;;16.55;71.01;92961.88;5093180;28;20445;-78
2022/12/11 07:29:28;;;;;;;7.97;2.40;;;;;;;16.57;72.53;92954.53;5057987;28;20470;-78
2022/12/11 07:31:55;;;;;;;3.00;2.30;;;;;;;16.57;72.96;92957.19;5092993;28;20447;-78
2022/12/11 07:34:22;;;;;;;1.73;1.50;;;;;;;16.53;72.95;92981.66;5093285;28;20483;-78
2022/12/11 07:36:48;;;;;;;1.80;1.60;;;;;;;16.52;73.21;92978.19;5093026;28;20454;-78
2022/12/11 07:39:15;;;;;;;2.43;1.80;;;;;;;16.52;73.45;92974.72;5092547;28;20840;-78
2022/12/11 07:41:42;;;;;;;5.13;1.93;;;;;;;16.50;72.68;92976.78;5092824;28;20942;-78
2022/12/11 07:44:10;;;;;;;4.40;1.77;;;;;;;16.53;73.42;92987.75;5092916;28;20470;-78
2022/12/11 07:46:37;;;;;;;4.57;2.07;;;;;;;16.49;73.53;92991.84;5092827;28;20451;-77
2022/12/11 07:49:05;;;;;;;3.47;1.70;;;;;;;16.47;73.24;92988.59;5092869;28;20444;-78
2022/12/11 07:51:34;;;;;;;2.37;2.17;;;;;;;16.43;72.64;93001.44;5092784;28;20448;-78
2022/12/11 07:54:03;;;;;;;2.20;1.60;;;;;;;16.37;72.40;92994.34;5074046;28;20517;-78
2022/12/11 07:56:31;;;;;;;2.70;1.43;;;;;;;16.44;72.44;92983.72;5092785;28;20791;-78
2022/12/11 07:58:59;;;;;;;5.53;2.10;;;;;;;16.61;72.86;92991.97;5092829;28;20436;-78
2022/12/11 08:01:29;;;;;;;3.73;1.90;;;;;;;16.54;72.75;92991.22;5092600;28;20436;-78
2022/12/11 08:03:57;;;;;;;2.83;2.20;;;;;;;16.59;72.75;92981.59;5073927;28;20436;-78
2022/12/11 08:06:27;;;;;;;4.93;3.10;;;;;;;16.67;72.99;92994.63;5057334;28;20923;-78
2022/12/11 08:08:54;;;;;;;4.73;2.00;;;;;;;16.72;71.37;92997.44;5093006;28;20444;-78
2022/12/11 08:11:21;;;;;;;6.30;2.47;;;;;;;16.81;72.71;92994.53;5092698;28;20451;-77
2022/12/11 08:13:48;;;;;;;2.43;2.23;;;;;;;16.85;73.12;92993.91;5092588;28;21023;-78
2022/12/11 08:16:16;;;;;;;6.60;2.30;;;;;;;16.75;73.75;92995.38;5092726;28;20443;-78
2022/12/11 08:18:45;;;;;;;3.80;2.30;;;;;;;16.77;72.77;93001.28;5092252;28;20475;-78
2022/12/11 08:21:14;;;;;;;3.00;2.10;;;;;;;16.83;72.77;92993.31;5092411;28;20584;-78
2022/12/11 08:23:41;;;;;;;3.93;2.40;;;;;;;16.80;72.49;92988.44;5092605;28;20455;-78
2022/12/11 08:26:12;;;;;;;2.70;2.10;;;;;;;16.88;73.29;92993.47;5092233;28;20440;-78
2022/12/11 08:28:39;;;;;;;3.60;3.00;;;;;;;16.92;73.80;93001.78;5092728;28;20443;-78
2022/12/11 08:31:08;;;;;;;4.50;1.60;;;;;;;16.84;72.99;92984.31;5073472;28;20448;-78
2022/12/11 08:33:35;;;;;;;5.23;1.60;;;;;;;16.87;73.33;92993.69;5092296;28;20486;-78
2022/12/11 08:36:05;;;;;;;2.10;1.90;;;;;;;16.86;73.40;92982.28;5092202;28;20886;-78
2022/12/11 08:38:31;;;;;;;1.80;1.70;;;;;;;16.81;72.46;92992.72;5092229;28;20458;-77
2022/12/11 08:40:58;;;;;;;4.07;1.70;;;;;;;16.83;72.91;92981.91;5057270;28;20452;-78
2022/12/11 08:43:25;;;;;;;2.10;1.67;;;;;;;16.84;73.22;92979.03;5092424;28;20440;-77
2022/12/11 08:45:52;;;;;;;3.27;1.43;;;;;;;16.85;72.63;92980.66;5073321;28;20950;-78
2022/12/11 08:48:19;;;;;;;2.20;1.43;;;;;;;16.87;73.31;92991.03;5092308;28;20772;-78
2022/12/11 08:50:45;;;;;;;2.50;1.50;;;;;;;16.90;73.46;92983.47;5092317;28;20930;-76
2022/12/11 08:53:14;;;;;;;1.80;1.70;;;;;;;16.94;73.88;92983.84;5095751;28;20826;-78
2022/12/11 08:55:41;;;;;;;4.13;1.60;;;;;;;16.91;71.81;92971.03;5095916;28;20440;-78
2022/12/11 08:58:07;;;;;;;2.10;1.50;;;;;;;16.97;72.06;92978.91;5096276;28;20824;-78
2022/12/11 09:00:34;;;;;;;2.30;1.50;;;;;;;17.06;71.72;92982.13;5096498;28;20466;-78
2022/12/11 09:03:02;;;;;;;1.73;1.50;;;;;;;17.18;72.55;92984.88;5096308;28;20442;-78
2022/12/11 09:05:29;;;;;;;6.23;2.27;;;;;;;17.17;73.17;92972.66;5060520;28;20461;-78
2022/12/11 09:07:56;;;;;;;5.50;2.00;;;;;;;17.19;72.98;92967.94;5096064;28;20450;-78
2022/12/11 09:10:24;;;;;;;6.93;2.10;;;;;;;17.25;73.81;92959.94;5095829;28;20443;-78
2022/12/11 09:12:50;;;;;;;6.80;2.00;;;;;;;17.29;73.14;92963.75;5095872;28;20461;-78
2022/12/11 09:15:17;;;;;;;6.57;2.77;;;;;;;17.31;73.29;92963.53;5095984;28;20857;-78
2022/12/11 09:17:44;;;;;;;2.50;2.30;;;;;;;17.36;73.33;92957.63;5095751;28;20475;-78
2022/12/11 09:20:11;;;;;;;3.20;2.70;;;;;;;17.44;72.16;92941.41;5095940;28;20471;-78
2022/12/11 09:22:38;;;;;;;2.60;2.20;;;;;;;17.50;71.68;92949.28;5095737;28;20451;-78
2022/12/11 09:25:06;;;;;;;5.00;2.60;;;;;;;17.59;71.80;92941.84;5076497;28;20451;-78
2022/12/11 09:27:35;;;;;;;5.53;2.73;;;;;;;17.59;71.78;92945.31;5042816;28;20443;-77
2022/12/11 09:30:02;;;;;;;2.83;2.63;;;;;;;17.62;71.68;92938.75;5094684;28;20938;-77
2022/12/11 09:32:29;;;;;;;3.03;2.50;;;;;;;17.55;70.84;92938.03;5096442;28;20444;-77
2022/12/11 09:34:56;;;;;;;4.17;2.10;;;;;;;17.48;70.84;92942.59;5096174;28;20519;-78
2022/12/11 09:37:23;;;;;;;2.53;2.27;;;;;;;17.46;71.81;92932.22;5096242;28;20447;-78
2022/12/11 09:39:50;;;;;;;2.90;2.60;;;;;;;17.46;72.26;92929.56;5095673;28;21357;-79
2022/12/11 09:42:25;;;;;;;3.10;1.73;;;;;;;17.35;70.92;92930.28;5094218;28;20452;-82
2022/12/11 09:44:57;;;;;;;3.03;2.13;;;;;;;17.28;71.25;92929.53;5060620;28;20436;-79
2022/12/11 09:47:31;;;;;;;6.60;2.77;;;;;;;17.27;73.64;92923.41;5096154;28;20448;-78
2022/12/11 09:50:05;;;;;;;2.43;2.00;;;;;;;17.17;74.53;92939.00;5096066;28;20439;-77
2022/12/11 09:52:37;;;;;;;2.50;2.30;;;;;;;17.12;75.57;92936.22;5095265;28;20444;-77
2022/12/11 09:55:13;;;;;;;5.63;2.33;;;;;;;17.13;76.78;92935.19;5095977;28;20486;-77
2022/12/11 09:57:51;;;;;;;7.63;2.47;;;;;;;16.96;76.58;92932.25;5095708;28;20462;-78
2022/12/11 10:00:26;;;;;;;2.93;2.63;;;;;;;16.91;75.81;92937.41;5095885;28;20444;-78
2022/12/11 10:03:09;;;;;;;2.93;2.30;;;;;;;16.90;76.41;92938.44;5093142;28;20446;-77
2022/12/11 10:05:46;;;;;;;2.83;2.50;;;;;;;16.89;76.59;92936.00;5095454;28;20847;-77
2022/12/11 10:08:21;;;;;;;2.33;2.07;;;;;;;16.83;75.35;92923.63;5059658;28;20447;-78
2022/12/11 10:10:57;;;;;;;2.40;2.20;;;;;;;16.85;75.42;92934.81;5095273;28;20447;-78
2022/12/11 10:13:34;;;;;;;4.03;2.53;;;;;;;16.87;75.29;92920.31;5076958;28;20492;-82
2022/12/11 10:16:12;;;;;;;4.30;2.00;;;;;;;16.84;75.14;92923.41;5075298;28;20480;-79
2022/12/11 10:18:40;;;;;;;3.77;2.10;;;;;;;16.83;75.26;92913.84;5056559;28;20448;-78
2022/12/11 10:21:07;;;;;;;2.00;1.90;;;;;;;16.86;75.63;92925.84;5075447;28;20449;-78
2022/12/11 10:23:43;;;;;;;3.97;2.93;;;;;;;16.85;77.46;92935.63;5075602;28;20452;-79
2022/12/11 10:26:21;;;;;;;3.37;3.07;;;;;;;16.75;80.73;92929.16;5075710;28;20455;-79
2022/12/11 10:28:49;;;;;;;2.03;1.83;;;;;;;16.58;81.22;92920.91;5075360;28;20472;-79
2022/12/11 10:31:19;;;;;;;3.07;2.20;;;;;;;16.55;81.89;92934.59;5075686;28;20456;-79
2022/12/11 10:33:59;;;;;;;2.40;2.20;;;;;;;16.47;82.49;92930.34;5074867;28;20469;-80
2022/12/11 10:36:29;;;;;;;2.73;2.17;;;;;;;16.41;83.49;92926.72;5075460;28;20459;-79
2022/12/11 10:38:56;;;;;;;3.70;3.40;;;;;;;16.46;84.15;92923.41;5074887;28;20441;-79
2022/12/11 10:41:31;;;;;;;4.13;3.77;;;;;;;16.49;83.22;92923.03;5075019;28;20449;-79
2022/12/11 10:44:00;;;;;;;5.27;3.40;;;;;;;16.47;81.94;92913.66;5079373;28;20452;-78
2022/12/11 10:46:31;;;;;;;6.00;5.40;;;;;;;16.50;81.92;92908.75;5041976;28;20451;-80
2022/12/11 10:49:00;;;;;;;6.20;4.30;;;;;;;16.56;81.91;92909.72;5095360;28;20439;-79
2022/12/11 10:51:35;;;;;;;3.43;3.13;;;;;;;16.64;81.02;92898.88;5095011;28;20447;-79
2022/12/11 10:54:06;;;;;;;7.40;5.67;;;;;;;16.76;80.81;92899.81;5095048;28;20479;-78
2022/12/11 10:56:34;;;;;;;7.70;7.03;;;;;;;16.86;81.02;92896.69;5094832;28;20439;-77
2022/12/11 10:59:01;;;;;;;9.93;9.00;;;;;;;16.91;81.05;92900.31;5079625;28;20445;-77
2022/12/11 11:01:32;;;;;;;12.03;9.60;;;;;;;16.93;81.48;92895.59;5074605;28;20448;-78
2022/12/11 11:04:05;;;;;;;6.43;5.10;;;;;;;16.87;81.48;92890.38;5039047;28;20451;-78
2022/12/11 11:06:33;;;;;;;5.43;4.70;;;;;;;16.85;82.25;92884.47;5072302;28;20437;-79
2022/12/11 11:09:02;;;;;;;4.93;4.50;;;;;;;16.81;81.42;92888.59;5074662;28;20456;-78
2022/12/11 11:11:31;;;;;;;2.83;2.53;;;;;;;16.73;81.17;92881.69;5074566;28;20549;-78
2022/12/11 11:14:15;;;;;;;2.93;2.73;;;;;;;16.70;80.95;92885.59;5073194;28;20568;-78
2022/12/11 11:16:45;;;;;;;3.53;3.23;;;;;;;16.62;81.30;92875.25;5073741;28;20453;-77
2022/12/11 11:19:20;;;;;;;3.87;2.70;;;;;;;16.59;82.43;92880.97;5073961;28;20484;-77
2022/12/11 11:21:53;;;;;;;2.37;2.17;;;;;;;16.55;83.87;92874.50;5074268;28;20444;-78
2022/12/11 11:24:26;;;;;;;3.00;2.70;;;;;;;16.51;85.54;92875.97;5074637;28;20448;-78
2022/12/11 11:26:53;;;;;;;7.57;2.63;;;;;;;16.51;85.81;92878.59;5073959;28;20843;-78
2022/12/11 11:29:27;;;;;;;3.33;2.50;;;;;;;16.45;84.08;92873.34;5073668;28;20531;-77
2022/12/11 11:31:56;;;;;;;4.37;2.60;;;;;;;16.50;84.67;92871.69;5073694;28;20444;-77
2022/12/11 11:34:25;;;;;;;7.33;2.97;;;;;;;16.63;84.55;92876.88;5073904;28;20820;-78
2022/12/11 11:37:04;;;;;;;2.53;2.33;;;;;;;16.79;84.32;92864.16;5073676;28;20449;-77
2022/12/11 11:39:37;;;;;;;3.93;2.50;;;;;;;16.90;82.17;92856.28;5073668;28;20463;-78
2022/12/11 11:42:10;;;;;;;3.07;2.43;;;;;;;17.03;81.68;92853.50;5070691;28;20852;-78
2022/12/11 11:44:41;;;;;;;3.03;2.33;;;;;;;17.13;80.42;92855.66;5081109;28;21012;-78